createdAt,value
2019-03-24T00:01:01.338Z,99.90
2019-03-24T00:03:29.247Z,99.90
2019-03-24T00:05:57.163Z,99.90
2019-03-24T00:08:25.077Z,99.90
2019-03-24T00:10:52.955Z,99.90
2019-03-24T00:13:20.949Z,99.90
2019-03-24T00:15:48.952Z,99.90
2019-03-24T00:18:16.848Z,99.90
2019-03-24T00:20:44.708Z,99.90
2019-03-24T00:23:12.576Z,99.90
2019-03-24T00:25:40.452Z,99.90
2019-03-24T00:28:08.303Z,99.90
2019-03-24T00:30:36.237Z,99.90
2019-03-24T00:33:04.126Z,99.90
2019-03-24T00:35:32.030Z,99.90
2019-03-24T00:37:59.906Z,99.90
2019-03-24T00:40:27.873Z,99.90
2019-03-24T00:42:55.824Z,99.90
2019-03-24T00:45:23.721Z,99.90
2019-03-24T00:47:51.749Z,99.90
2019-03-24T00:50:19.605Z,99.90
2019-03-24T00:52:47.502Z,99.90
2019-03-24T00:55:15.380Z,99.90
2019-03-24T00:57:43.287Z,99.90
2019-03-24T01:00:11.195Z,99.90
2019-03-24T01:02:39.252Z,99.90
2019-03-24T01:05:07.152Z,99.90
2019-03-24T01:07:35.126Z,99.90
2019-03-24T01:10:03.104Z,99.90
2019-03-24T01:12:30.969Z,99.90
2019-03-24T01:14:58.865Z,99.90
2019-03-24T01:17:26.725Z,99.90
2019-03-24T01:19:54.681Z,99.90
2019-03-24T01:22:22.671Z,99.90
2019-03-24T01:24:50.633Z,99.90
2019-03-24T01:27:18.519Z,99.90
2019-03-24T01:29:46.456Z,99.90
2019-03-24T01:32:14.323Z,99.90
2019-03-24T01:34:42.311Z,99.90
2019-03-24T01:37:10.180Z,99.90
2019-03-24T01:39:38.592Z,99.90
2019-03-24T01:42:06.522Z,99.90
2019-03-24T01:44:34.410Z,99.90
2019-03-24T01:47:02.318Z,99.90
2019-03-24T01:49:30.239Z,99.90
2019-03-24T01:51:58.185Z,99.90
2019-03-24T01:54:26.101Z,99.90
2019-03-24T01:56:54.022Z,99.90
2019-03-24T01:59:21.910Z,99.90
2019-03-24T02:01:49.860Z,99.90
2019-03-24T02:04:17.754Z,99.90
2019-03-24T02:06:45.658Z,99.90
2019-03-24T02:09:13.619Z,99.90
2019-03-24T02:11:41.507Z,99.90
2019-03-24T02:14:09.393Z,99.90
2019-03-24T02:16:37.278Z,99.90
2019-03-24T02:19:05.190Z,99.90
2019-03-24T02:21:33.162Z,99.90
2019-03-24T02:24:01.014Z,99.90
2019-03-24T02:26:28.911Z,99.90
2019-03-24T02:28:56.819Z,99.90
2019-03-24T02:31:24.832Z,99.90
2019-03-24T02:33:52.856Z,99.90
2019-03-24T02:36:20.834Z,99.90
2019-03-24T02:38:48.881Z,99.90
2019-03-24T02:41:16.738Z,99.90
2019-03-24T02:43:44.656Z,99.90
2019-03-24T02:46:23.605Z,99.90
2019-03-24T02:48:42.246Z,99.90
2019-03-24T02:51:10.121Z,99.90
2019-03-24T02:53:37.994Z,99.90
2019-03-24T02:56:05.967Z,99.90
2019-03-24T02:58:33.886Z,99.90
2019-03-24T03:01:01.895Z,99.90
2019-03-24T03:03:29.954Z,99.90
2019-03-24T03:05:58.034Z,99.90
2019-03-24T03:08:25.933Z,99.90
2019-03-24T03:10:53.811Z,99.90
2019-03-24T03:13:21.684Z,99.90
2019-03-24T03:15:49.581Z,99.90
2019-03-24T03:18:17.463Z,99.90
2019-03-24T03:20:45.381Z,99.90
2019-03-24T03:23:13.398Z,99.90
2019-03-24T03:25:41.279Z,99.90
2019-03-24T03:28:09.274Z,99.90
2019-03-24T03:30:37.159Z,99.90
2019-03-24T03:33:05.204Z,99.90
2019-03-24T03:35:33.208Z,99.90
2019-03-24T03:38:01.120Z,99.90
2019-03-24T03:40:29.096Z,99.90
2019-03-24T03:42:57.069Z,99.90
2019-03-24T03:45:25.039Z,99.90
2019-03-24T03:47:52.998Z,99.90
2019-03-24T03:50:21.026Z,99.90
2019-03-24T03:52:49.071Z,99.90
2019-03-24T03:55:17.012Z,99.90
2019-03-24T03:57:44.948Z,99.90
2019-03-24T04:00:12.827Z,99.90
2019-03-24T04:02:40.703Z,99.90
2019-03-24T04:05:08.607Z,99.90
2019-03-24T04:07:36.476Z,99.90
2019-03-24T04:10:04.378Z,99.90
2019-03-24T04:12:32.254Z,99.90
2019-03-24T04:15:00.539Z,99.90
2019-03-24T04:17:28.525Z,99.90
2019-03-24T04:19:56.516Z,99.90
2019-03-24T04:22:24.474Z,99.90
2019-03-24T04:24:52.479Z,99.90
2019-03-24T04:27:20.479Z,99.90
2019-03-24T04:29:48.366Z,99.90
2019-03-24T04:32:16.258Z,99.90
2019-03-24T04:34:44.161Z,99.90
2019-03-24T04:37:12.044Z,99.90
2019-03-24T04:39:40.053Z,99.90
2019-03-24T04:42:07.917Z,99.90
2019-03-24T04:44:35.830Z,99.90
2019-03-24T04:47:03.719Z,99.90
2019-03-24T04:49:31.740Z,99.90
2019-03-24T04:51:59.649Z,99.90
2019-03-24T04:54:27.568Z,99.90
2019-03-24T04:56:55.457Z,99.90
2019-03-24T04:59:23.403Z,99.90
2019-03-24T05:01:51.291Z,99.90
2019-03-24T05:04:19.300Z,99.90
2019-03-24T05:06:47.169Z,99.90
2019-03-24T05:09:15.047Z,99.90
2019-03-24T05:11:42.901Z,99.90
2019-03-24T05:14:10.771Z,99.90
2019-03-24T05:16:38.670Z,99.90
2019-03-24T05:19:06.568Z,99.90
2019-03-24T05:21:34.465Z,99.90
2019-03-24T05:24:02.329Z,99.90
2019-03-24T05:26:30.220Z,99.90
2019-03-24T05:28:58.108Z,99.90
2019-03-24T05:31:26.100Z,99.90
2019-03-24T05:33:53.984Z,99.90
2019-03-24T05:36:21.856Z,99.90
2019-03-24T05:38:49.744Z,99.90
2019-03-24T05:41:17.638Z,99.90
2019-03-24T05:43:45.496Z,99.90
2019-03-24T05:46:13.405Z,99.90
2019-03-24T05:48:41.280Z,99.90
2019-03-24T05:51:09.202Z,99.90
2019-03-24T05:53:37.186Z,99.90
2019-03-24T05:56:05.065Z,99.90
2019-03-24T05:58:32.938Z,99.90
2019-03-24T06:01:00.921Z,99.90
2019-03-24T06:03:28.891Z,99.90
2019-03-24T06:05:56.864Z,99.90
2019-03-24T06:08:24.707Z,99.90
2019-03-24T06:10:52.622Z,99.90
2019-03-24T06:13:20.513Z,99.90
2019-03-24T06:15:48.431Z,99.90
2019-03-24T06:18:16.322Z,99.90
2019-03-24T06:20:44.305Z,99.90
2019-03-24T06:23:12.181Z,99.90
2019-03-24T06:25:40.071Z,99.90
2019-03-24T06:28:07.969Z,99.90
2019-03-24T06:30:35.857Z,99.90
2019-03-24T06:33:03.780Z,99.90
2019-03-24T06:35:31.672Z,99.90
2019-03-24T06:37:59.555Z,99.90
2019-03-24T06:40:27.437Z,99.90
2019-03-24T06:42:55.418Z,99.90
2019-03-24T06:45:28.409Z,99.90
2019-03-24T06:47:57.852Z,99.90
2019-03-24T06:50:22.579Z,99.90
2019-03-24T06:52:50.467Z,99.90
2019-03-24T06:55:18.354Z,99.90
2019-03-24T06:57:46.279Z,99.90
2019-03-24T07:00:14.179Z,99.90
2019-03-24T07:02:42.066Z,99.90
2019-03-24T07:05:10.039Z,99.90
2019-03-24T07:07:37.923Z,99.90
2019-03-24T07:10:05.895Z,99.90
2019-03-24T07:12:33.783Z,99.90
2019-03-24T07:15:01.678Z,99.90
2019-03-24T07:17:29.601Z,99.90
2019-03-24T07:19:57.492Z,99.90
2019-03-24T07:22:25.461Z,99.90
2019-03-24T07:24:53.351Z,99.90
2019-03-24T07:27:21.279Z,99.90
2019-03-24T07:29:49.168Z,99.90
2019-03-24T07:32:17.163Z,99.90
2019-03-24T07:34:45.115Z,99.90
2019-03-24T07:37:13.023Z,99.90
2019-03-24T07:39:40.945Z,99.90
2019-03-24T07:42:09.004Z,99.90
2019-03-24T07:44:36.879Z,99.90
2019-03-24T07:47:04.794Z,99.90
2019-03-24T07:49:32.753Z,99.90
2019-03-24T07:52:00.659Z,99.90
2019-03-24T07:54:28.657Z,99.90
2019-03-24T07:56:56.540Z,99.90
2019-03-24T07:59:24.523Z,99.90
2019-03-24T08:01:52.411Z,99.90
2019-03-24T08:04:20.344Z,99.90
2019-03-24T08:06:48.313Z,99.90
2019-03-24T08:09:16.314Z,99.90
2019-03-24T08:11:44.230Z,99.90
2019-03-24T08:14:12.193Z,99.90
2019-03-24T08:16:40.063Z,99.90
2019-03-24T08:19:08.017Z,99.90
2019-03-24T08:21:35.890Z,99.90
2019-03-24T08:24:03.790Z,99.90
2019-03-24T08:26:31.745Z,99.90
2019-03-24T08:28:59.679Z,99.90
2019-03-24T08:31:27.627Z,99.90
2019-03-24T08:33:55.509Z,99.90
2019-03-24T08:36:23.387Z,99.90
2019-03-24T08:38:51.318Z,99.90
2019-03-24T08:41:19.215Z,99.90
2019-03-24T08:43:47.161Z,99.90
2019-03-24T08:46:15.147Z,99.90
2019-03-24T08:48:43.128Z,99.90
2019-03-24T08:51:11.138Z,99.90
2019-03-24T08:53:39.002Z,99.90
2019-03-24T08:56:06.907Z,99.90
2019-03-24T08:58:34.799Z,99.90
2019-03-24T09:01:02.710Z,99.90
2019-03-24T09:03:32.555Z,99.90
2019-03-24T09:06:00.371Z,99.90
2019-03-24T09:08:28.315Z,99.90
2019-03-24T09:10:56.198Z,99.90
2019-03-24T09:13:24.074Z,99.90
2019-03-24T09:15:51.982Z,99.90
2019-03-24T09:18:19.855Z,99.90
2019-03-24T09:20:47.836Z,99.90
2019-03-24T09:23:15.903Z,99.90
2019-03-24T09:25:43.974Z,99.90
2019-03-24T09:28:11.975Z,99.90
2019-03-24T09:30:39.871Z,99.90
2019-03-24T09:33:07.852Z,99.90
2019-03-24T09:35:35.728Z,99.90
2019-03-24T09:38:03.638Z,99.90
2019-03-24T09:40:31.533Z,99.90
2019-03-24T09:42:59.423Z,99.90
2019-03-24T09:45:27.365Z,99.90
2019-03-24T09:47:55.415Z,99.90
2019-03-24T09:50:23.330Z,99.90
2019-03-24T09:52:51.334Z,99.90
2019-03-24T09:55:19.235Z,99.90
2019-03-24T09:57:48.906Z,99.90
2019-03-24T10:00:16.870Z,99.90
2019-03-24T10:02:44.750Z,99.90
2019-03-24T10:05:12.737Z,99.90
2019-03-24T10:07:40.632Z,99.90
2019-03-24T10:10:08.636Z,99.90
2019-03-24T10:12:36.667Z,99.90
2019-03-24T10:15:04.820Z,99.90
2019-03-24T10:17:32.849Z,99.90
2019-03-24T10:20:00.778Z,99.90
2019-03-24T10:22:28.785Z,99.90
2019-03-24T10:24:56.816Z,99.90
2019-03-24T10:27:24.806Z,99.90
2019-03-24T10:29:52.785Z,99.90
2019-03-24T10:32:20.768Z,99.90
2019-03-24T10:34:48.658Z,99.90
2019-03-24T10:37:16.586Z,99.90
2019-03-24T10:39:44.510Z,99.90
2019-03-24T10:42:12.384Z,99.90
2019-03-24T10:44:40.484Z,99.90
2019-03-24T10:47:08.635Z,99.90
2019-03-24T10:49:36.655Z,99.90
2019-03-24T10:52:04.735Z,99.90
2019-03-24T10:54:32.702Z,99.90
2019-03-24T10:57:00.743Z,99.90
2019-03-24T10:59:28.711Z,99.90
2019-03-24T11:01:56.683Z,99.90
2019-03-24T11:04:24.565Z,99.90
2019-03-24T11:06:52.499Z,99.90
2019-03-24T11:09:20.481Z,99.90
2019-03-24T11:11:48.368Z,99.90
2019-03-24T11:14:16.437Z,99.90
2019-03-24T11:16:44.403Z,99.90
2019-03-24T11:19:12.309Z,99.90
2019-03-24T11:21:40.302Z,99.90
2019-03-24T11:24:08.298Z,99.90
2019-03-24T11:26:36.235Z,99.90
2019-03-24T11:29:04.298Z,99.90
2019-03-24T11:31:32.268Z,99.90
2019-03-24T11:34:00.253Z,99.90
2019-03-24T11:36:28.114Z,99.90
2019-03-24T11:38:56.024Z,99.90
2019-03-24T11:41:23.916Z,99.90
2019-03-24T11:43:51.914Z,99.90
2019-03-24T11:46:20.291Z,99.90
2019-03-24T11:48:48.333Z,99.90
2019-03-24T11:51:16.274Z,99.90
2019-03-24T11:53:44.555Z,99.90
2019-03-24T11:56:12.518Z,99.90
2019-03-24T11:58:40.513Z,99.90
2019-03-24T12:01:08.494Z,99.90
2019-03-24T12:03:36.375Z,99.90
2019-03-24T12:06:13.866Z,99.90
2019-03-24T12:08:33.947Z,99.90
2019-03-24T12:11:01.907Z,99.90
2019-03-24T12:13:29.875Z,99.90
2019-03-24T12:15:57.783Z,99.90
2019-03-24T12:18:25.796Z,99.90
2019-03-24T12:20:53.772Z,99.90
2019-03-24T12:23:21.745Z,99.90
2019-03-24T12:25:49.711Z,99.90
2019-03-24T12:28:17.673Z,99.90
2019-03-24T12:30:45.561Z,99.90
2019-03-24T12:33:13.550Z,99.90
2019-03-24T12:35:41.426Z,99.90
2019-03-24T12:38:09.312Z,99.90
2019-03-24T12:40:37.299Z,99.90
2019-03-24T12:43:05.220Z,99.90
2019-03-24T12:45:33.773Z,99.90
2019-03-24T12:48:01.946Z,99.90
2019-03-24T12:50:31.697Z,99.90
2019-03-24T12:52:59.620Z,99.90
2019-03-24T12:55:27.584Z,99.60
2019-03-24T12:57:55.518Z,99.60
2019-03-24T13:00:23.408Z,98.10
2019-03-24T13:02:51.386Z,95.20
2019-03-24T13:05:19.264Z,93.60
2019-03-24T13:07:47.178Z,92.80
2019-03-24T13:10:15.100Z,93.90
2019-03-24T13:12:43.092Z,95.20
2019-03-24T13:15:30.013Z,95.60
2019-03-24T13:17:58.071Z,95.40
2019-03-24T13:20:37.829Z,96.40
2019-03-24T13:22:55.953Z,96.80
2019-03-24T13:25:25.044Z,97.60
2019-03-24T13:27:53.188Z,97.50
2019-03-24T13:30:21.404Z,95.70
2019-03-24T13:32:49.482Z,95.60
2019-03-24T13:35:17.601Z,93.40
2019-03-24T13:37:45.599Z,94.30
2019-03-24T13:40:13.943Z,93.90
2019-03-24T13:42:42.185Z,94.20
2019-03-24T13:45:10.491Z,94.60
2019-03-24T13:47:38.608Z,95.00
2019-03-24T13:50:06.713Z,95.70
2019-03-24T13:52:34.811Z,96.30
2019-03-24T13:55:02.852Z,97.10
2019-03-24T13:57:31.051Z,98.50
2019-03-24T13:59:59.151Z,99.30
2019-03-24T14:02:27.127Z,99.90
2019-03-24T14:04:55.300Z,98.10
2019-03-24T14:07:23.386Z,99.90
2019-03-24T14:09:51.443Z,98.50
2019-03-24T14:12:19.650Z,97.90
2019-03-24T14:14:47.791Z,98.70
2019-03-24T14:17:15.902Z,97.50
2019-03-24T14:19:44.096Z,97.40
2019-03-24T14:22:15.373Z,98.60
2019-03-24T14:24:43.435Z,99.20
2019-03-24T14:27:11.428Z,99.90
2019-03-24T14:29:39.550Z,99.90
2019-03-24T14:32:07.726Z,99.90
2019-03-24T14:34:35.784Z,99.90
2019-03-24T14:37:03.810Z,99.90
2019-03-24T14:39:32.022Z,99.90
2019-03-24T14:42:00.117Z,99.90
2019-03-24T14:44:28.266Z,99.90
2019-03-24T14:46:56.386Z,99.90
2019-03-24T14:49:24.531Z,99.90
2019-03-24T14:51:52.595Z,99.90
2019-03-24T14:54:20.771Z,99.90
2019-03-24T14:56:48.775Z,99.90
2019-03-24T14:59:16.859Z,99.90
2019-03-24T15:01:45.063Z,99.90
2019-03-24T15:04:13.185Z,99.90
2019-03-24T15:06:41.372Z,99.90
2019-03-24T15:09:09.434Z,99.90
2019-03-24T15:11:38.708Z,99.90
2019-03-24T15:14:06.780Z,99.90
2019-03-24T15:16:34.822Z,99.90
2019-03-24T15:19:02.919Z,99.90
2019-03-24T15:21:31.030Z,99.90
2019-03-24T15:23:59.112Z,99.90
2019-03-24T15:26:27.229Z,99.90
2019-03-24T15:28:55.327Z,99.90
2019-03-24T15:31:23.405Z,99.90
2019-03-24T15:33:51.516Z,99.90
2019-03-24T15:36:19.620Z,99.90
2019-03-24T15:38:47.761Z,99.90
2019-03-24T15:41:18.195Z,99.90
2019-03-24T15:43:45.660Z,99.90
2019-03-24T15:46:13.868Z,99.90
2019-03-24T15:48:41.922Z,99.90
2019-03-24T15:51:28.856Z,99.90
2019-03-24T15:53:57.212Z,99.90
2019-03-24T15:56:25.303Z,99.90
2019-03-24T15:58:53.361Z,99.90
2019-03-24T16:01:21.556Z,99.90
2019-03-24T16:03:49.583Z,99.90
2019-03-24T16:06:17.495Z,99.90
2019-03-24T16:08:45.646Z,99.90
2019-03-24T16:11:16.055Z,99.90
2019-03-24T16:13:43.636Z,99.90
2019-03-24T16:16:11.774Z,99.90
2019-03-24T16:18:40.305Z,99.90
2019-03-24T16:21:08.336Z,99.90
2019-03-24T16:23:36.372Z,99.90
2019-03-24T16:26:04.487Z,99.90
2019-03-24T16:28:32.481Z,99.90
2019-03-24T16:31:00.505Z,99.90
2019-03-24T16:33:28.494Z,99.90
2019-03-24T16:35:56.590Z,99.90
2019-03-24T16:38:24.736Z,99.90
2019-03-24T16:40:52.859Z,99.90
2019-03-24T16:43:21.012Z,99.90
2019-03-24T16:45:49.146Z,99.90
2019-03-24T16:48:17.281Z,99.90
2019-03-24T16:50:45.405Z,99.90
2019-03-24T16:53:13.493Z,99.90
2019-03-24T16:55:41.633Z,99.90
2019-03-24T16:58:09.688Z,99.90
2019-03-24T17:00:37.704Z,99.90
2019-03-24T17:03:05.581Z,99.90
2019-03-24T17:05:33.603Z,99.90
2019-03-24T17:08:01.782Z,99.90
2019-03-24T17:10:29.829Z,99.90
2019-03-24T17:12:58.005Z,99.90
2019-03-24T17:15:26.141Z,99.90
2019-03-24T17:17:54.306Z,99.90
2019-03-24T17:20:22.424Z,99.90
2019-03-24T17:22:50.571Z,99.90
2019-03-24T17:25:18.635Z,99.90
2019-03-24T17:27:46.877Z,99.90
2019-03-24T17:30:14.979Z,99.90
2019-03-24T17:32:43.185Z,99.90
2019-03-24T17:35:11.330Z,99.90
2019-03-24T17:37:39.444Z,99.90
2019-03-24T17:40:07.603Z,99.90
2019-03-24T17:42:35.816Z,99.90
2019-03-24T17:45:05.111Z,99.90
2019-03-24T17:47:33.196Z,99.90
2019-03-24T17:50:01.256Z,99.90
2019-03-24T17:52:29.217Z,99.90
2019-03-24T17:54:57.310Z,99.90
2019-03-24T17:57:25.399Z,99.90
2019-03-24T17:59:53.392Z,99.90
2019-03-24T18:02:21.482Z,99.90
2019-03-24T18:04:49.429Z,99.90
2019-03-24T18:07:17.425Z,99.90
2019-03-24T18:09:45.483Z,99.90
2019-03-24T18:12:13.477Z,99.90
2019-03-24T18:14:41.573Z,99.90
2019-03-24T18:17:09.628Z,99.90
2019-03-24T18:19:37.742Z,99.90
2019-03-24T18:22:11.477Z,99.90
2019-03-24T18:24:35.892Z,99.90
2019-03-24T18:27:04.020Z,99.90
2019-03-24T18:29:51.056Z,99.90
2019-03-24T18:32:19.263Z,99.90
2019-03-24T18:34:47.364Z,99.90
2019-03-24T18:37:15.593Z,99.90
2019-03-24T18:39:43.641Z,99.90
2019-03-24T18:42:11.616Z,99.90
2019-03-24T18:44:39.564Z,99.90
2019-03-24T18:47:07.449Z,99.90
2019-03-24T18:49:35.363Z,99.90
2019-03-24T18:52:03.475Z,99.90
2019-03-24T18:54:31.556Z,99.90
2019-03-24T18:56:59.516Z,99.90
2019-03-24T18:59:27.437Z,99.90
2019-03-24T19:01:55.339Z,99.90
2019-03-24T19:04:23.358Z,99.90
2019-03-24T19:06:51.329Z,99.90
2019-03-24T19:09:19.401Z,99.90
2019-03-24T19:11:47.436Z,99.90
2019-03-24T19:14:15.396Z,99.90
2019-03-24T19:16:43.302Z,99.90
2019-03-24T19:19:11.386Z,99.90
2019-03-24T19:21:39.321Z,99.90
2019-03-24T19:24:07.309Z,99.90
2019-03-24T19:26:35.409Z,99.90
2019-03-24T19:29:03.308Z,99.90
2019-03-24T19:31:31.328Z,99.90
2019-03-24T19:33:59.207Z,99.90
2019-03-24T19:36:27.214Z,99.90
2019-03-24T19:38:55.213Z,99.90
2019-03-24T19:41:23.091Z,99.90
2019-03-24T19:43:51.093Z,99.90
2019-03-24T19:46:19.027Z,99.90
2019-03-24T19:48:47.018Z,99.90
2019-03-24T19:51:15.397Z,99.90
2019-03-24T19:53:43.447Z,99.90
2019-03-24T19:56:11.418Z,99.90
2019-03-24T19:58:39.322Z,99.90
2019-03-24T20:01:07.305Z,99.90
2019-03-24T20:03:36.195Z,99.90
2019-03-24T20:06:04.191Z,99.90
2019-03-24T20:08:32.374Z,99.90
2019-03-24T20:11:00.472Z,99.90
2019-03-24T20:13:28.609Z,99.90
2019-03-24T20:15:56.753Z,99.90
2019-03-24T20:18:24.733Z,99.90
2019-03-24T20:20:52.777Z,99.90
2019-03-24T20:23:20.888Z,99.90
2019-03-24T20:25:48.893Z,99.90
2019-03-24T20:28:16.932Z,99.90
2019-03-24T20:30:44.979Z,99.90
2019-03-24T20:33:13.014Z,99.90
2019-03-24T20:35:41.036Z,99.90
2019-03-24T20:38:10.019Z,99.90
2019-03-24T20:40:38.095Z,99.90
2019-03-24T20:43:06.139Z,99.90
2019-03-24T20:45:34.149Z,99.90
2019-03-24T20:48:02.121Z,99.90
2019-03-24T20:50:29.999Z,99.90
2019-03-24T20:53:04.148Z,99.90
2019-03-24T20:55:28.186Z,99.90
2019-03-24T20:57:56.145Z,99.90
2019-03-24T21:00:24.127Z,99.90
2019-03-24T21:02:52.104Z,99.90
2019-03-24T21:05:20.011Z,99.90
2019-03-24T21:07:47.964Z,99.90
2019-03-24T21:10:15.968Z,99.90
2019-03-24T21:12:43.884Z,99.90
2019-03-24T21:15:11.895Z,99.90
2019-03-24T21:17:39.890Z,99.90
2019-03-24T21:20:07.781Z,99.90
2019-03-24T21:22:35.717Z,99.90
2019-03-24T21:25:03.722Z,99.90
2019-03-24T21:27:31.585Z,99.90
2019-03-24T21:29:59.474Z,99.90
2019-03-24T21:32:27.375Z,99.90
2019-03-24T21:34:55.283Z,99.90
2019-03-24T21:37:23.272Z,99.90
2019-03-24T21:39:51.264Z,99.90
2019-03-24T21:42:19.235Z,99.90
2019-03-24T21:44:48.083Z,99.90
2019-03-24T21:47:15.993Z,99.90
2019-03-24T21:49:43.911Z,99.90
2019-03-24T21:52:11.831Z,99.90
2019-03-24T21:54:39.819Z,99.90
2019-03-24T21:57:07.876Z,99.90
2019-03-24T21:59:35.881Z,99.90
2019-03-24T22:02:03.950Z,99.90
2019-03-24T22:04:31.993Z,99.90
2019-03-24T22:06:59.959Z,99.90
2019-03-24T22:09:29.824Z,99.90
2019-03-24T22:11:57.768Z,99.90
2019-03-24T22:14:25.646Z,99.90
2019-03-24T22:16:53.578Z,99.90
2019-03-24T22:19:21.457Z,99.90
2019-03-24T22:21:49.306Z,99.90
2019-03-24T22:24:17.223Z,99.90
2019-03-24T22:26:45.114Z,99.90
2019-03-24T22:29:13.004Z,99.90
2019-03-24T22:31:40.888Z,99.90
2019-03-24T22:34:08.948Z,99.90
2019-03-24T22:36:36.840Z,99.90
2019-03-24T22:39:04.978Z,99.90
2019-03-24T22:41:32.933Z,99.90
2019-03-24T22:44:00.831Z,99.90
2019-03-24T22:46:28.701Z,99.90
2019-03-24T22:48:56.613Z,99.90
2019-03-24T22:51:24.472Z,99.90
2019-03-24T22:54:02.811Z,99.90
2019-03-24T22:56:22.008Z,99.90
2019-03-24T22:58:50.070Z,99.90
2019-03-24T23:01:18.158Z,99.90
2019-03-24T23:03:46.161Z,99.90
2019-03-24T23:06:14.133Z,99.90
2019-03-24T23:08:42.147Z,99.90
2019-03-24T23:11:10.191Z,99.90
2019-03-24T23:13:38.183Z,99.90
2019-03-24T23:16:06.062Z,99.90
2019-03-24T23:18:34.371Z,99.90
2019-03-24T23:21:02.311Z,99.90
2019-03-24T23:23:30.304Z,99.90
2019-03-24T23:25:58.323Z,99.90
2019-03-24T23:28:26.215Z,99.90
2019-03-24T23:30:54.130Z,99.90
2019-03-24T23:33:22.141Z,99.90
2019-03-24T23:35:50.195Z,99.90
2019-03-24T23:38:18.193Z,99.90
2019-03-24T23:40:46.201Z,99.90
2019-03-24T23:43:14.241Z,99.90
2019-03-24T23:45:42.208Z,99.90
2019-03-24T23:48:10.430Z,99.90
2019-03-24T23:50:38.452Z,99.90
2019-03-24T23:53:06.331Z,99.90
2019-03-24T23:55:34.289Z,99.90
2019-03-24T23:58:02.265Z,99.90
